sensor_id;sensor_type;location;lat;lon;timestamp;pressure;altitude;pressure_sealevel;temperature;humidity
11499;BME280;5806;48.748;9.278;2024-03-29T00:00:48;98843.66;;;8.42;70.41
11499;BME280;5806;48.748;9.278;2024-03-29T00:03:17;98841.19;;;8.58;69.96
11499;BME280;5806;48.748;9.278;2024-03-29T00:05:44;98836.81;;;8.65;68.90
11499;BME280;5806;48.748;9.278;2024-03-29T00:08:12;98824.00;;;8.63;68.77
11499;BME280;5806;48.748;9.278;2024-03-29T00:10:39;98815.55;;;8.74;67.30
11499;BME280;5806;48.748;9.278;2024-03-29T00:13:07;98815.83;;;8.68;67.90
11499;BME280;5806;48.748;9.278;2024-03-29T00:15:34;98809.27;;;8.71;69.25
11499;BME280;5806;48.748;9.278;2024-03-29T00:18:02;98809.84;;;8.63;68.40
11499;BME280;5806;48.748;9.278;2024-03-29T00:20:29;98797.84;;;8.64;70.23
11499;BME280;5806;48.748;9.278;2024-03-29T00:22:57;98793.81;;;8.37;72.06
11499;BME280;5806;48.748;9.278;2024-03-29T00:25:25;98792.45;;;8.27;72.50
11499;BME280;5806;48.748;9.278;2024-03-29T00:27:53;98783.41;;;8.56;68.07
11499;BME280;5806;48.748;9.278;2024-03-29T00:30:21;98779.32;;;8.59;70.91
11499;BME280;5806;48.748;9.278;2024-03-29T00:32:49;98786.44;;;8.47;69.83
11499;BME280;5806;48.748;9.278;2024-03-29T00:35:16;98786.92;;;8.74;66.31
11499;BME280;5806;48.748;9.278;2024-03-29T00:37:43;98782.78;;;8.87;65.80
11499;BME280;5806;48.748;9.278;2024-03-29T00:40:11;98785.50;;;8.87;65.75
11499;BME280;5806;48.748;9.278;2024-03-29T00:42:39;98775.36;;;9.00;66.17
11499;BME280;5806;48.748;9.278;2024-03-29T00:45:07;98767.70;;;9.07;64.42
11499;BME280;5806;48.748;9.278;2024-03-29T00:47:34;98779.95;;;9.17;64.71
11499;BME280;5806;48.748;9.278;2024-03-29T00:50:02;98791.45;;;9.06;65.03
11499;BME280;5806;48.748;9.278;2024-03-29T00:52:29;98775.36;;;9.05;64.58
11499;BME280;5806;48.748;9.278;2024-03-29T00:54:57;98794.97;;;9.07;64.59
11499;BME280;5806;48.748;9.278;2024-03-29T00:57:25;98802.59;;;9.12;64.47
11499;BME280;5806;48.748;9.278;2024-03-29T00:59:52;98810.05;;;8.92;65.75
11499;BME280;5806;48.748;9.278;2024-03-29T01:02:20;98806.72;;;9.00;65.66
11499;BME280;5806;48.748;9.278;2024-03-29T01:04:47;98822.80;;;9.01;67.13
11499;BME280;5806;48.748;9.278;2024-03-29T01:07:15;98812.39;;;9.13;66.40
11499;BME280;5806;48.748;9.278;2024-03-29T01:09:44;98794.16;;;9.04;65.97
11499;BME280;5806;48.748;9.278;2024-03-29T01:12:11;98797.67;;;9.17;63.87
11499;BME280;5806;48.748;9.278;2024-03-29T01:14:39;98801.12;;;9.32;62.50
11499;BME280;5806;48.748;9.278;2024-03-29T01:17:06;98799.98;;;9.43;61.95
11499;BME280;5806;48.748;9.278;2024-03-29T01:19:34;98792.34;;;9.43;61.51
11499;BME280;5806;48.748;9.278;2024-03-29T01:22:02;98806.22;;;9.51;61.55
11499;BME280;5806;48.748;9.278;2024-03-29T01:24:29;98802.63;;;9.56;60.52
11499;BME280;5806;48.748;9.278;2024-03-29T01:26:56;98802.02;;;9.69;60.03
11499;BME280;5806;48.748;9.278;2024-03-29T01:29:26;98794.66;;;9.67;60.03
11499;BME280;5806;48.748;9.278;2024-03-29T01:31:53;98816.50;;;9.64;60.32
11499;BME280;5806;48.748;9.278;2024-03-29T01:34:21;98822.75;;;9.70;60.84
11499;BME280;5806;48.748;9.278;2024-03-29T01:36:49;98815.95;;;9.62;60.62
11499;BME280;5806;48.748;9.278;2024-03-29T01:39:16;98808.53;;;9.70;60.50
11499;BME280;5806;48.748;9.278;2024-03-29T01:41:45;98812.09;;;9.71;59.98
11499;BME280;5806;48.748;9.278;2024-03-29T01:44:13;98806.64;;;9.71;60.84
11499;BME280;5806;48.748;9.278;2024-03-29T01:46:41;98780.47;;;9.67;61.13
11499;BME280;5806;48.748;9.278;2024-03-29T01:49:09;98777.77;;;9.60;61.36
11499;BME280;5806;48.748;9.278;2024-03-29T01:51:38;98782.13;;;9.63;61.61
11499;BME280;5806;48.748;9.278;2024-03-29T01:54:09;98771.01;;;9.52;63.11
11499;BME280;5806;48.748;9.278;2024-03-29T01:56:39;98778.95;;;9.44;63.87
11499;BME280;5806;48.748;9.278;2024-03-29T01:59:13;98776.70;;;9.61;64.58
11499;BME280;5806;48.748;9.278;2024-03-29T02:01:45;98782.91;;;9.66;61.55
11499;BME280;5806;48.748;9.278;2024-03-29T02:04:13;98781.05;;;9.62;61.38
11499;BME280;5806;48.748;9.278;2024-03-29T02:06:41;98775.80;;;9.73;60.52
11499;BME280;5806;48.748;9.278;2024-03-29T02:09:09;98776.89;;;9.69;60.20
11499;BME280;5806;48.748;9.278;2024-03-29T02:11:36;98766.83;;;9.62;60.85
11499;BME280;5806;48.748;9.278;2024-03-29T02:14:04;98761.38;;;9.65;60.40
11499;BME280;5806;48.748;9.278;2024-03-29T02:16:33;98752.56;;;9.75;60.38
11499;BME280;5806;48.748;9.278;2024-03-29T02:19:00;98747.65;;;9.75;60.24
11499;BME280;5806;48.748;9.278;2024-03-29T02:21:28;98746.28;;;9.75;60.81
11499;BME280;5806;48.748;9.278;2024-03-29T02:24:09;98748.19;;;9.74;60.39
11499;BME280;5806;48.748;9.278;2024-03-29T02:26:28;98743.81;;;9.76;60.22
11499;BME280;5806;48.748;9.278;2024-03-29T02:28:57;98728.82;;;9.73;60.61
11499;BME280;5806;48.748;9.278;2024-03-29T02:31:25;98697.69;;;9.77;60.13
11499;BME280;5806;48.748;9.278;2024-03-29T02:33:52;98709.95;;;9.79;60.96
11499;BME280;5806;48.748;9.278;2024-03-29T02:36:20;98714.20;;;9.90;60.42
11499;BME280;5806;48.748;9.278;2024-03-29T02:38:47;98713.15;;;9.89;60.10
11499;BME280;5806;48.748;9.278;2024-03-29T02:41:15;98708.80;;;9.85;60.88
11499;BME280;5806;48.748;9.278;2024-03-29T02:43:43;98714.77;;;9.90;60.67
11499;BME280;5806;48.748;9.278;2024-03-29T02:46:10;98715.64;;;9.83;60.40
11499;BME280;5806;48.748;9.278;2024-03-29T02:48:38;98710.95;;;9.88;60.04
11499;BME280;5806;48.748;9.278;2024-03-29T02:51:05;98712.02;;;9.92;60.92
11499;BME280;5806;48.748;9.278;2024-03-29T02:53:33;98711.50;;;9.88;60.47
11499;BME280;5806;48.748;9.278;2024-03-29T02:56:00;98705.50;;;9.88;60.38
11499;BME280;5806;48.748;9.278;2024-03-29T02:58:28;98706.63;;;9.85;60.06
11499;BME280;5806;48.748;9.278;2024-03-29T03:00:56;98699.52;;;9.84;60.63
11499;BME280;5806;48.748;9.278;2024-03-29T03:03:26;98709.64;;;9.83;60.54
11499;BME280;5806;48.748;9.278;2024-03-29T03:05:53;98704.20;;;9.81;59.73
11499;BME280;5806;48.748;9.278;2024-03-29T03:08:21;98706.33;;;9.89;59.73
11499;BME280;5806;48.748;9.278;2024-03-29T03:11:06;98706.11;;;9.80;60.25
11499;BME280;5806;48.748;9.278;2024-03-29T03:13:34;98717.55;;;9.82;60.20
11499;BME280;5806;48.748;9.278;2024-03-29T03:16:01;98710.75;;;9.80;60.61
11499;BME280;5806;48.748;9.278;2024-03-29T03:18:29;98709.95;;;9.79;60.53
11499;BME280;5806;48.748;9.278;2024-03-29T03:20:57;98714.33;;;9.78;60.04
11499;BME280;5806;48.748;9.278;2024-03-29T03:23:25;98707.81;;;9.74;60.28
11499;BME280;5806;48.748;9.278;2024-03-29T03:25:54;98708.61;;;9.77;61.01
11499;BME280;5806;48.748;9.278;2024-03-29T03:28:22;98716.25;;;9.75;60.82
11499;BME280;5806;48.748;9.278;2024-03-29T03:30:51;98712.40;;;9.81;60.05
11499;BME280;5806;48.748;9.278;2024-03-29T03:33:19;98693.59;;;9.74;60.84
11499;BME280;5806;48.748;9.278;2024-03-29T03:35:47;98693.83;;;9.80;60.87
11499;BME280;5806;48.748;9.278;2024-03-29T03:38:15;98689.17;;;9.83;60.99
11499;BME280;5806;48.748;9.278;2024-03-29T03:40:42;98682.66;;;9.79;60.69
11499;BME280;5806;48.748;9.278;2024-03-29T03:43:10;98686.48;;;9.76;60.37
11499;BME280;5806;48.748;9.278;2024-03-29T03:45:38;98696.27;;;9.82;60.10
11499;BME280;5806;48.748;9.278;2024-03-29T03:48:09;98696.25;;;9.84;60.03
11499;BME280;5806;48.748;9.278;2024-03-29T03:50:40;98692.77;;;9.76;60.02
11499;BME280;5806;48.748;9.278;2024-03-29T03:53:08;98699.64;;;9.71;60.05
11499;BME280;5806;48.748;9.278;2024-03-29T03:55:36;98704.95;;;9.89;59.98
11499;BME280;5806;48.748;9.278;2024-03-29T03:58:04;98710.23;;;9.78;60.31
11499;BME280;5806;48.748;9.278;2024-03-29T04:00:31;98702.25;;;9.84;59.83
11499;BME280;5806;48.748;9.278;2024-03-29T04:02:59;98699.49;;;9.86;59.47
11499;BME280;5806;48.748;9.278;2024-03-29T04:05:26;98705.27;;;9.85;59.84
11499;BME280;5806;48.748;9.278;2024-03-29T04:07:54;98700.70;;;9.75;60.13
11499;BME280;5806;48.748;9.278;2024-03-29T04:10:21;98698.44;;;9.85;60.07
11499;BME280;5806;48.748;9.278;2024-03-29T04:12:50;98699.47;;;9.91;60.05
11499;BME280;5806;48.748;9.278;2024-03-29T04:15:18;98704.41;;;9.87;59.62
11499;BME280;5806;48.748;9.278;2024-03-29T04:17:45;98696.53;;;9.83;59.56
11499;BME280;5806;48.748;9.278;2024-03-29T04:20:13;98694.83;;;9.89;59.74
11499;BME280;5806;48.748;9.278;2024-03-29T04:22:40;98686.39;;;9.88;60.14
11499;BME280;5806;48.748;9.278;2024-03-29T04:25:09;98683.14;;;9.84;60.53
11499;BME280;5806;48.748;9.278;2024-03-29T04:27:36;98676.59;;;9.82;60.89
11499;BME280;5806;48.748;9.278;2024-03-29T04:30:05;98662.22;;;9.72;62.17
11499;BME280;5806;48.748;9.278;2024-03-29T04:32:32;98660.58;;;9.73;63.03
11499;BME280;5806;48.748;9.278;2024-03-29T04:35:00;98644.77;;;9.73;62.63
11499;BME280;5806;48.748;9.278;2024-03-29T04:37:27;98655.45;;;9.67;63.05
11499;BME280;5806;48.748;9.278;2024-03-29T04:39:56;98660.16;;;9.59;64.26
11499;BME280;5806;48.748;9.278;2024-03-29T04:42:24;98666.91;;;9.66;64.60
11499;BME280;5806;48.748;9.278;2024-03-29T04:44:51;98662.41;;;9.54;65.32
11499;BME280;5806;48.748;9.278;2024-03-29T04:47:19;98664.26;;;9.59;64.89
11499;BME280;5806;48.748;9.278;2024-03-29T04:49:46;98655.02;;;9.55;66.23
11499;BME280;5806;48.748;9.278;2024-03-29T04:52:14;98646.00;;;9.57;66.66
11499;BME280;5806;48.748;9.278;2024-03-29T04:54:41;98645.34;;;9.36;67.76
11499;BME280;5806;48.748;9.278;2024-03-29T04:57:10;98644.47;;;9.43;68.02
11499;BME280;5806;48.748;9.278;2024-03-29T04:59:39;98649.33;;;9.51;68.78
11499;BME280;5806;48.748;9.278;2024-03-29T05:02:06;98654.16;;;9.26;72.11
11499;BME280;5806;48.748;9.278;2024-03-29T05:04:34;98654.17;;;9.23;72.54
11499;BME280;5806;48.748;9.278;2024-03-29T05:07:04;98656.95;;;9.13;73.86
11499;BME280;5806;48.748;9.278;2024-03-29T05:09:32;98640.31;;;9.15;72.90
11499;BME280;5806;48.748;9.278;2024-03-29T05:11:59;98635.12;;;9.16;73.43
11499;BME280;5806;48.748;9.278;2024-03-29T05:14:27;98636.68;;;9.27;72.54
11499;BME280;5806;48.748;9.278;2024-03-29T05:16:54;98640.86;;;9.17;74.62
11499;BME280;5806;48.748;9.278;2024-03-29T05:19:22;98636.02;;;9.04;75.11
11499;BME280;5806;48.748;9.278;2024-03-29T05:21:49;98633.30;;;9.06;76.19
11499;BME280;5806;48.748;9.278;2024-03-29T05:24:17;98651.78;;;9.12;75.51
11499;BME280;5806;48.748;9.278;2024-03-29T05:26:44;98655.53;;;9.23;74.85
11499;BME280;5806;48.748;9.278;2024-03-29T05:29:12;98660.97;;;9.26;73.60
11499;BME280;5806;48.748;9.278;2024-03-29T05:31:39;98667.25;;;9.26;72.94
11499;BME280;5806;48.748;9.278;2024-03-29T05:34:08;98675.99;;;9.23;74.20
11499;BME280;5806;48.748;9.278;2024-03-29T05:36:35;98671.00;;;9.35;72.80
11499;BME280;5806;48.748;9.278;2024-03-29T05:39:03;98678.88;;;9.39;72.67
11499;BME280;5806;48.748;9.278;2024-03-29T05:41:31;98679.72;;;9.35;72.87
11499;BME280;5806;48.748;9.278;2024-03-29T05:43:59;98682.69;;;9.41;72.88
11499;BME280;5806;48.748;9.278;2024-03-29T05:46:26;98686.77;;;9.43;71.93
11499;BME280;5806;48.748;9.278;2024-03-29T05:48:53;98681.05;;;9.42;72.17
11499;BME280;5806;48.748;9.278;2024-03-29T05:51:22;98665.69;;;9.51;72.57
11499;BME280;5806;48.748;9.278;2024-03-29T05:53:50;98659.97;;;9.48;73.32
11499;BME280;5806;48.748;9.278;2024-03-29T05:56:17;98651.58;;;9.42;73.74
11499;BME280;5806;48.748;9.278;2024-03-29T05:58:45;98660.65;;;9.32;74.98
11499;BME280;5806;48.748;9.278;2024-03-29T06:01:12;98662.80;;;9.38;75.37
11499;BME280;5806;48.748;9.278;2024-03-29T06:03:40;98660.88;;;9.36;76.47
11499;BME280;5806;48.748;9.278;2024-03-29T06:06:07;98654.66;;;9.28;77.33
11499;BME280;5806;48.748;9.278;2024-03-29T06:08:37;98653.30;;;9.28;79.13
11499;BME280;5806;48.748;9.278;2024-03-29T06:11:05;98654.95;;;9.29;78.62
11499;BME280;5806;48.748;9.278;2024-03-29T06:13:33;98665.06;;;9.26;79.22
11499;BME280;5806;48.748;9.278;2024-03-29T06:16:22;98660.13;;;9.28;79.86
11499;BME280;5806;48.748;9.278;2024-03-29T06:19:07;98656.05;;;9.25;79.80
11499;BME280;5806;48.748;9.278;2024-03-29T06:21:34;98642.55;;;9.44;79.05
11499;BME280;5806;48.748;9.278;2024-03-29T06:24:10;98647.81;;;9.35;79.82
11499;BME280;5806;48.748;9.278;2024-03-29T06:26:41;98659.23;;;9.37;80.76
11499;BME280;5806;48.748;9.278;2024-03-29T06:29:09;98664.98;;;9.38;80.67
11499;BME280;5806;48.748;9.278;2024-03-29T06:31:36;98675.29;;;9.46;80.55
11499;BME280;5806;48.748;9.278;2024-03-29T06:34:04;98674.11;;;9.55;80.09
11499;BME280;5806;48.748;9.278;2024-03-29T06:36:31;98689.87;;;9.63;80.04
11499;BME280;5806;48.748;9.278;2024-03-29T06:39:00;98694.23;;;9.64;80.42
11499;BME280;5806;48.748;9.278;2024-03-29T06:41:30;98684.67;;;9.64;79.92
11499;BME280;5806;48.748;9.278;2024-03-29T06:43:57;98686.89;;;9.62;80.65
11499;BME280;5806;48.748;9.278;2024-03-29T06:46:24;98691.23;;;9.63;80.64
11499;BME280;5806;48.748;9.278;2024-03-29T06:48:52;98683.55;;;9.70;80.70
11499;BME280;5806;48.748;9.278;2024-03-29T06:51:19;98703.44;;;9.75;80.96
11499;BME280;5806;48.748;9.278;2024-03-29T06:53:47;98686.77;;;9.77;80.86
11499;BME280;5806;48.748;9.278;2024-03-29T06:56:14;98693.86;;;9.78;81.09
11499;BME280;5806;48.748;9.278;2024-03-29T06:58:42;98701.63;;;9.92;80.26
11499;BME280;5806;48.748;9.278;2024-03-29T07:01:09;98702.23;;;9.89;80.26
11499;BME280;5806;48.748;9.278;2024-03-29T07:03:37;98694.50;;;9.96;80.67
11499;BME280;5806;48.748;9.278;2024-03-29T07:06:05;98698.31;;;9.97;80.92
11499;BME280;5806;48.748;9.278;2024-03-29T07:08:32;98695.52;;;10.02;80.89
11499;BME280;5806;48.748;9.278;2024-03-29T07:11:00;98695.81;;;10.06;81.63
11499;BME280;5806;48.748;9.278;2024-03-29T07:13:29;98703.67;;;10.13;80.89
11499;BME280;5806;48.748;9.278;2024-03-29T07:16:00;98699.26;;;10.17;80.75
11499;BME280;5806;48.748;9.278;2024-03-29T07:18:28;98694.91;;;10.16;81.10
11499;BME280;5806;48.748;9.278;2024-03-29T07:20:57;98704.72;;;10.17;81.51
11499;BME280;5806;48.748;9.278;2024-03-29T07:23:24;98710.67;;;10.24;81.39
11499;BME280;5806;48.748;9.278;2024-03-29T07:25:59;98715.82;;;10.28;81.24
11499;BME280;5806;48.748;9.278;2024-03-29T07:28:27;98709.02;;;10.25;81.65
11499;BME280;5806;48.748;9.278;2024-03-29T07:30:55;98702.32;;;10.36;81.36
11499;BME280;5806;48.748;9.278;2024-03-29T07:33:23;98713.73;;;10.43;81.04
11499;BME280;5806;48.748;9.278;2024-03-29T07:35:53;98719.07;;;10.53;82.07
11499;BME280;5806;48.748;9.278;2024-03-29T07:38:21;98723.67;;;10.58;81.58
11499;BME280;5806;48.748;9.278;2024-03-29T07:40:53;98723.42;;;10.57;81.76
11499;BME280;5806;48.748;9.278;2024-03-29T07:43:22;98725.62;;;10.55;82.11
11499;BME280;5806;48.748;9.278;2024-03-29T07:45:49;98737.88;;;10.57;82.52
11499;BME280;5806;48.748;9.278;2024-03-29T07:48:18;98738.65;;;10.63;81.94
11499;BME280;5806;48.748;9.278;2024-03-29T07:50:46;98745.20;;;10.64;82.15
11499;BME280;5806;48.748;9.278;2024-03-29T07:53:14;98733.63;;;10.72;82.45
11499;BME280;5806;48.748;9.278;2024-03-29T07:55:41;98734.88;;;10.82;81.35
11499;BME280;5806;48.748;9.278;2024-03-29T07:58:09;98723.16;;;10.79;81.97
11499;BME280;5806;48.748;9.278;2024-03-29T08:00:40;98722.33;;;10.79;82.44
11499;BME280;5806;48.748;9.278;2024-03-29T08:03:08;98725.78;;;10.87;82.29
11499;BME280;5806;48.748;9.278;2024-03-29T08:05:35;98719.70;;;10.92;82.43
11499;BME280;5806;48.748;9.278;2024-03-29T08:08:03;98717.77;;;10.95;82.41
11499;BME280;5806;48.748;9.278;2024-03-29T08:10:30;98721.83;;;10.98;82.64
11499;BME280;5806;48.748;9.278;2024-03-29T08:12:58;98722.33;;;11.00;82.01
11499;BME280;5806;48.748;9.278;2024-03-29T08:15:27;98727.77;;;11.05;81.75
11499;BME280;5806;48.748;9.278;2024-03-29T08:17:54;98727.40;;;11.11;81.54
11499;BME280;5806;48.748;9.278;2024-03-29T08:20:22;98731.75;;;11.12;82.14
11499;BME280;5806;48.748;9.278;2024-03-29T08:22:51;98731.64;;;11.20;81.81
11499;BME280;5806;48.748;9.278;2024-03-29T08:25:20;98739.52;;;11.26;81.67
11499;BME280;5806;48.748;9.278;2024-03-29T08:27:47;98739.11;;;11.35;81.19
11499;BME280;5806;48.748;9.278;2024-03-29T08:30:15;98733.55;;;11.40;80.74
11499;BME280;5806;48.748;9.278;2024-03-29T08:32:42;98731.27;;;11.47;80.71
11499;BME280;5806;48.748;9.278;2024-03-29T08:35:10;98721.36;;;11.51;80.98
11499;BME280;5806;48.748;9.278;2024-03-29T08:37:37;98714.97;;;11.56;80.81
11499;BME280;5806;48.748;9.278;2024-03-29T08:40:05;98720.10;;;11.62;80.94
11499;BME280;5806;48.748;9.278;2024-03-29T08:42:32;98707.28;;;11.60;80.22
11499;BME280;5806;48.748;9.278;2024-03-29T08:45:02;98713.99;;;11.68;80.19
11499;BME280;5806;48.748;9.278;2024-03-29T08:47:29;98707.59;;;11.75;80.50
11499;BME280;5806;48.748;9.278;2024-03-29T08:49:57;98715.52;;;11.76;80.42
11499;BME280;5806;48.748;9.278;2024-03-29T08:52:25;98722.84;;;11.81;80.45
11499;BME280;5806;48.748;9.278;2024-03-29T08:54:53;98731.56;;;11.83;79.95
11499;BME280;5806;48.748;9.278;2024-03-29T08:57:20;98735.63;;;11.85;79.85
11499;BME280;5806;48.748;9.278;2024-03-29T08:59:48;98750.10;;;11.88;79.82
11499;BME280;5806;48.748;9.278;2024-03-29T09:02:15;98751.97;;;11.90;79.30
11499;BME280;5806;48.748;9.278;2024-03-29T09:04:43;98756.86;;;11.93;79.61
11499;BME280;5806;48.748;9.278;2024-03-29T09:07:10;98757.44;;;11.93;80.21
11499;BME280;5806;48.748;9.278;2024-03-29T09:09:37;98753.45;;;12.01;79.43
11499;BME280;5806;48.748;9.278;2024-03-29T09:12:11;98753.06;;;12.08;78.99
11499;BME280;5806;48.748;9.278;2024-03-29T09:14:35;98769.94;;;12.15;78.60
11499;BME280;5806;48.748;9.278;2024-03-29T09:17:03;98769.75;;;12.25;78.77
11499;BME280;5806;48.748;9.278;2024-03-29T09:19:30;98779.28;;;12.30;78.92
11499;BME280;5806;48.748;9.278;2024-03-29T09:21:58;98790.54;;;12.28;78.24
11499;BME280;5806;48.748;9.278;2024-03-29T09:24:26;98778.02;;;12.38;78.29
11499;BME280;5806;48.748;9.278;2024-03-29T09:26:54;98776.88;;;12.42;77.85
11499;BME280;5806;48.748;9.278;2024-03-29T09:29:21;98755.73;;;12.42;77.26
11499;BME280;5806;48.748;9.278;2024-03-29T09:31:49;98762.25;;;12.46;77.43
11499;BME280;5806;48.748;9.278;2024-03-29T09:34:16;98764.34;;;12.52;77.57
11499;BME280;5806;48.748;9.278;2024-03-29T09:36:44;98774.17;;;12.55;77.11
11499;BME280;5806;48.748;9.278;2024-03-29T09:39:11;98769.78;;;12.54;77.56
11499;BME280;5806;48.748;9.278;2024-03-29T09:41:39;98762.50;;;12.63;77.27
11499;BME280;5806;48.748;9.278;2024-03-29T09:44:09;98751.83;;;12.62;76.70
11499;BME280;5806;48.748;9.278;2024-03-29T09:46:38;98738.97;;;12.60;77.16
11499;BME280;5806;48.748;9.278;2024-03-29T09:49:09;98749.34;;;12.63;76.97
11499;BME280;5806;48.748;9.278;2024-03-29T09:51:40;98754.77;;;12.65;76.56
11499;BME280;5806;48.748;9.278;2024-03-29T09:54:09;98742.55;;;12.74;77.17
11499;BME280;5806;48.748;9.278;2024-03-29T09:56:39;98745.63;;;12.83;77.31
11499;BME280;5806;48.748;9.278;2024-03-29T09:59:07;98752.90;;;12.90;76.41
11499;BME280;5806;48.748;9.278;2024-03-29T10:01:34;98763.42;;;13.02;75.81
11499;BME280;5806;48.748;9.278;2024-03-29T10:04:03;98769.81;;;12.97;75.82
11499;BME280;5806;48.748;9.278;2024-03-29T10:06:34;98765.58;;;13.02;76.10
11499;BME280;5806;48.748;9.278;2024-03-29T10:09:02;98766.05;;;13.07;75.76
11499;BME280;5806;48.748;9.278;2024-03-29T10:11:29;98785.75;;;13.09;75.61
11499;BME280;5806;48.748;9.278;2024-03-29T10:13:57;98787.70;;;13.08;75.31
11499;BME280;5806;48.748;9.278;2024-03-29T10:16:25;98787.59;;;13.13;74.85
11499;BME280;5806;48.748;9.278;2024-03-29T10:18:52;98785.62;;;13.16;74.35
11499;BME280;5806;48.748;9.278;2024-03-29T10:21:24;98784.44;;;13.20;74.49
11499;BME280;5806;48.748;9.278;2024-03-29T10:23:50;98784.62;;;13.23;74.74
11499;BME280;5806;48.748;9.278;2024-03-29T10:26:17;98791.95;;;13.28;73.47
11499;BME280;5806;48.748;9.278;2024-03-29T10:28:47;98786.41;;;13.30;74.33
11499;BME280;5806;48.748;9.278;2024-03-29T10:31:15;98783.05;;;13.33;73.69
11499;BME280;5806;48.748;9.278;2024-03-29T10:33:45;98779.30;;;13.29;74.72
11499;BME280;5806;48.748;9.278;2024-03-29T10:36:17;98781.63;;;13.36;73.06
11499;BME280;5806;48.748;9.278;2024-03-29T10:38:44;98785.55;;;13.32;73.61
11499;BME280;5806;48.748;9.278;2024-03-29T10:41:14;98780.80;;;13.35;73.48
11499;BME280;5806;48.748;9.278;2024-03-29T10:43:42;98769.82;;;13.35;73.02
11499;BME280;5806;48.748;9.278;2024-03-29T10:46:12;98762.59;;;13.39;73.08
11499;BME280;5806;48.748;9.278;2024-03-29T10:48:40;98762.14;;;13.48;73.68
11499;BME280;5806;48.748;9.278;2024-03-29T10:51:08;98775.91;;;13.46;72.78
11499;BME280;5806;48.748;9.278;2024-03-29T10:53:38;98778.05;;;13.49;73.37
11499;BME280;5806;48.748;9.278;2024-03-29T10:56:08;98784.84;;;13.51;73.00
11499;BME280;5806;48.748;9.278;2024-03-29T10:58:38;98785.91;;;13.53;72.70
11499;BME280;5806;48.748;9.278;2024-03-29T11:01:07;98792.02;;;13.50;72.83
11499;BME280;5806;48.748;9.278;2024-03-29T11:03:41;98797.56;;;13.47;72.71
11499;BME280;5806;48.748;9.278;2024-03-29T11:06:09;98785.73;;;13.49;73.54
11499;BME280;5806;48.748;9.278;2024-03-29T11:08:39;98797.08;;;13.45;73.36
11499;BME280;5806;48.748;9.278;2024-03-29T11:11:10;98791.42;;;13.39;73.78
11499;BME280;5806;48.748;9.278;2024-03-29T11:16:12;98784.48;;;13.44;72.69
11499;BME280;5806;48.748;9.278;2024-03-29T11:18:39;98781.57;;;13.38;72.85
11499;BME280;5806;48.748;9.278;2024-03-29T11:21:07;98782.39;;;13.39;72.76
11499;BME280;5806;48.748;9.278;2024-03-29T11:23:36;98785.33;;;13.42;73.93
11499;BME280;5806;48.748;9.278;2024-03-29T11:26:04;98787.05;;;13.52;74.58
11499;BME280;5806;48.748;9.278;2024-03-29T11:28:33;98787.23;;;13.55;72.88
11499;BME280;5806;48.748;9.278;2024-03-29T11:31:02;98797.85;;;13.59;72.48
11499;BME280;5806;48.748;9.278;2024-03-29T11:33:35;98803.28;;;13.62;72.49
11499;BME280;5806;48.748;9.278;2024-03-29T11:36:10;98807.10;;;13.63;72.90
11499;BME280;5806;48.748;9.278;2024-03-29T11:38:39;98819.63;;;13.69;72.47
11499;BME280;5806;48.748;9.278;2024-03-29T11:41:16;98825.45;;;13.79;72.57
11499;BME280;5806;48.748;9.278;2024-03-29T11:43:44;98815.86;;;13.65;73.14
11499;BME280;5806;48.748;9.278;2024-03-29T11:46:13;98826.80;;;13.68;72.35
11499;BME280;5806;48.748;9.278;2024-03-29T11:48:42;98821.60;;;13.66;72.17
11499;BME280;5806;48.748;9.278;2024-03-29T11:51:12;98826.61;;;13.64;72.05
11499;BME280;5806;48.748;9.278;2024-03-29T11:53:44;98825.48;;;13.65;72.99
11499;BME280;5806;48.748;9.278;2024-03-29T11:56:12;98808.75;;;13.64;72.86
11499;BME280;5806;48.748;9.278;2024-03-29T11:58:40;98805.52;;;13.73;72.49
11499;BME280;5806;48.748;9.278;2024-03-29T12:01:08;98818.49;;;13.70;72.57
11499;BME280;5806;48.748;9.278;2024-03-29T12:03:38;98819.68;;;13.67;72.21
11499;BME280;5806;48.748;9.278;2024-03-29T12:06:08;98831.64;;;13.60;72.29
11499;BME280;5806;48.748;9.278;2024-03-29T12:08:40;98835.23;;;13.58;72.40
11499;BME280;5806;48.748;9.278;2024-03-29T12:11:09;98846.91;;;13.52;72.85
11499;BME280;5806;48.748;9.278;2024-03-29T12:13:37;98863.12;;;13.51;72.73
11499;BME280;5806;48.748;9.278;2024-03-29T12:16:06;98859.17;;;13.44;73.47
11499;BME280;5806;48.748;9.278;2024-03-29T12:18:34;98861.97;;;13.41;73.87
11499;BME280;5806;48.748;9.278;2024-03-29T12:21:02;98879.41;;;13.48;74.09
11499;BME280;5806;48.748;9.278;2024-03-29T12:23:30;98883.83;;;13.46;73.37
11499;BME280;5806;48.748;9.278;2024-03-29T12:25:58;98891.05;;;13.42;74.04
11499;BME280;5806;48.748;9.278;2024-03-29T12:28:26;98896.64;;;13.37;74.74
11499;BME280;5806;48.748;9.278;2024-03-29T12:30:56;98903.86;;;13.33;76.15
11499;BME280;5806;48.748;9.278;2024-03-29T12:33:24;98914.13;;;13.28;77.54
11499;BME280;5806;48.748;9.278;2024-03-29T12:35:52;98914.07;;;13.30;78.73
11499;BME280;5806;48.748;9.278;2024-03-29T12:38:21;98905.78;;;13.33;77.72
11499;BME280;5806;48.748;9.278;2024-03-29T12:40:50;98905.91;;;13.41;78.08
11499;BME280;5806;48.748;9.278;2024-03-29T12:43:22;98897.06;;;13.44;77.41
11499;BME280;5806;48.748;9.278;2024-03-29T12:45:51;98905.71;;;13.38;78.58
11499;BME280;5806;48.748;9.278;2024-03-29T12:48:21;98912.42;;;13.16;83.06
11499;BME280;5806;48.748;9.278;2024-03-29T12:50:50;98907.57;;;12.94;87.31
11499;BME280;5806;48.748;9.278;2024-03-29T12:53:19;98910.27;;;12.81;91.10
11499;BME280;5806;48.748;9.278;2024-03-29T12:55:47;98917.61;;;12.69;90.71
11499;BME280;5806;48.748;9.278;2024-03-29T12:58:16;98918.30;;;12.77;92.02
11499;BME280;5806;48.748;9.278;2024-03-29T13:00:46;98914.92;;;12.83;90.03
11499;BME280;5806;48.748;9.278;2024-03-29T13:03:13;98910.58;;;13.11;85.31
11499;BME280;5806;48.748;9.278;2024-03-29T13:05:41;98907.34;;;13.09;84.09
11499;BME280;5806;48.748;9.278;2024-03-29T13:08:10;98909.78;;;13.11;85.03
11499;BME280;5806;48.748;9.278;2024-03-29T13:10:39;98910.23;;;13.15;85.51
11499;BME280;5806;48.748;9.278;2024-03-29T13:13:07;98906.59;;;13.20;85.45
11499;BME280;5806;48.748;9.278;2024-03-29T13:15:36;98910.48;;;13.32;82.72
11499;BME280;5806;48.748;9.278;2024-03-29T13:18:05;98905.48;;;13.34;82.49
11499;BME280;5806;48.748;9.278;2024-03-29T13:20:37;98916.64;;;13.40;79.84
11499;BME280;5806;48.748;9.278;2024-03-29T13:23:09;98901.06;;;13.36;80.00
11499;BME280;5806;48.748;9.278;2024-03-29T13:25:37;98886.16;;;13.39;79.86